Wednesday, January 17, 2018, 9:35 AM EST
Back to Local

KMPV, Knapp State Airport

Location: Barre, VT, United States Lat: 44.2
Local Time: 9:35 AM EST (14:35 GMT) Lon: -72.567
Time Zone: US/Eastern Elev: 1164 ft

Show me the last for .
Show Decoded

2018-01-17 09:18 METAR KMPV 171418Z AUTO 00000KT 2SM -SN BR FEW019 BKN041 OVC055 M07/M07 A3029
                 RMK AO2 P0001 T10671067 =
2018-01-17 08:51 METAR KMPV 171351Z AUTO 00000KT 2 1/2SM -SN BR OVC018 M07/M07 A3030 RMK AO2
                 SNB38 SLP283 P0000 T10671067 =
2018-01-17 08:40 METAR KMPV 171340Z AUTO 00000KT 4SM -SN BR BKN016 OVC065 M07/M07 A3030 RMK AO2
                 SNB38 P0000 T10671072 =
2018-01-17 07:51 METAR KMPV 171251Z AUTO 32003KT 6SM BR OVC085 M08/M08 A3030 RMK AO2 SLP283
                 T10781083 =
2018-01-17 06:51 METAR KMPV 171151Z AUTO 16003KT 7SM FEW065 OVC090 M07/M07 A3031 RMK AO2 SNE44
                 SLP285 P0000 60000 I6000 T10671067 11067 21072 58008 =
2018-01-17 05:51 METAR KMPV 171051Z AUTO 00000KT 5SM -SN BR OVC070 M07/M07 A3032 RMK AO2 SNE23B47
                 SLP291 P0000 T10671067 =
2018-01-17 04:51 METAR KMPV 170951Z AUTO 00000KT 4SM -SN BR OVC065 M07/M07 A3032 RMK AO2 SLP288
                 P0000 T10671072 =
2018-01-17 03:51 METAR KMPV 170851Z AUTO 00000KT 5SM -SN BR OVC065 M07/M07 A3033 RMK AO2 SLP293
                 P0000 60000 I3000 T10671067 58005 =
2018-01-17 02:51 METAR KMPV 170751Z AUTO 00000KT 6SM -SN BR OVC060 M07/M07 A3034 RMK AO2 SNB41
                 SLP296 P0000 T10671067 =
2018-01-17 01:51 METAR KMPV 170651Z AUTO 00000KT 7SM SCT065 SCT080 BKN090 M07/M07 A3034 RMK AO2
                 SNE35 SLP295 P0000 T10671067 =
2018-01-17 00:51 METAR KMPV 170551Z AUTO 00000KT 5SM -SN BR OVC070 M07/M07 A3035 RMK AO2 SLP299
                 P0000 60000 T10671067 11056 21067 58010 =
2018-01-16 23:51 METAR KMPV 170451Z AUTO 00000KT 3SM -SN BR OVC042 M06/M06 A3036 RMK AO2 SLP304
                 P0000 T10611061 410441128 =
2018-01-16 23:26 METAR KMPV 170426Z AUTO 00000KT 3SM -SN BR OVC044 M06/M07 A3037 RMK AO2 P0000
                 T10611067 =
2018-01-16 23:12 METAR KMPV 170412Z AUTO 00000KT 2 1/2SM -SN BR OVC040 M06/M06 A3037 RMK AO2
                 P0000 T10611061 =
2018-01-16 22:51 METAR KMPV 170351Z AUTO 00000KT 4SM -SN BR OVC048 M06/M06 A3038 RMK AO2 SNB40
                 SLP309 P0000 T10611061 =
2018-01-16 21:51 METAR KMPV 170251Z AUTO 00000KT 9SM OVC070 M07/M07 A3038 RMK AO2 SLP310
                 T10671067 58002 =
2018-01-16 20:51 METAR KMPV 170151Z AUTO 00000KT 10SM BKN060 OVC070 M07/M07 A3038 RMK AO2 SLP310
                 T10671067 =
2018-01-16 19:51 METAR KMPV 170051Z AUTO 00000KT 10SM BKN065 M06/M07 A3039 RMK AO2 SLP314
                 T10611067 =
2018-01-16 18:51 METAR KMPV 162351Z AUTO 00000KT 10SM BKN050 BKN070 OVC095 M06/M06 A3038 RMK AO2
                 SLP313 60000 T10561061 11044 21056 50002 =
2018-01-16 17:51 METAR KMPV 162251Z AUTO 19003KT 7SM OVC040 M06/M06 A3039 RMK AO2 SNE33 SLP316
                 P0000 T10561061 =
2018-01-16 17:22 METAR KMPV 162222Z AUTO 00000KT 5SM -SN BR SCT027 OVC044 M05/M06 A3039 RMK AO2
                 P0000 T10501061 =
2018-01-16 16:51 METAR KMPV 162151Z AUTO 17005KT 4SM -SN BR OVC023 M05/M06 A3038 RMK AO2 SNB41
                 SLP312 P0000 T10501061 =
2018-01-16 15:51 METAR KMPV 162051Z AUTO 15007KT 10SM OVC023 M05/M07 A3038 RMK AO2 SLP311
                 T10501067 53005 =
2018-01-16 14:51 METAR KMPV 161951Z AUTO 17008KT 10SM BKN026 OVC031 M05/M07 A3036 RMK AO2 SLP306
                 T10501072 =
2018-01-16 13:51 METAR KMPV 161851Z AUTO 16009KT 10SM OVC024 M05/M07 A3036 RMK AO2 SLP305
                 T10501072 =
2018-01-16 13:01 METAR KMPV 161801Z AUTO 17007KT 10SM BKN025 OVC048 M05/M08 A3036 RMK AO2
                 T10501078 =
2018-01-16 12:51 METAR KMPV 161751Z AUTO 15005KT 10SM SCT025 OVC048 M06/M08 A3036 RMK AO2 SLP305
                 60000 T10561078 11056 21122 58022 =
2018-01-16 11:51 METAR KMPV 161651Z AUTO 15006KT 10SM FEW027 BKN075 M07/M09 A3038 RMK AO2 SLP314
                 T10671089 =
2018-01-16 10:51 METAR KMPV 161551Z AUTO 00000KT 8SM OVC080 M07/M09 A3042 RMK AO2 SNB08E45 SLP327
                 P0000 T10721094 =
2018-01-16 09:51 METAR KMPV 161451Z AUTO 15003KT 8SM SCT026 OVC080 M08/M11 A3043 RMK AO2 SNE1359
                 SLP331 P0000 60000 T10831106 53005 =

Support USWX by starting your Amazon purchase here.